Latest Weather Observations for Clermont Airport

IDQ60801

Issued at 12:02 pm EST Tuesday 17 October 2017 (issued every 30 minutes, with the page automatically refreshed every 10 minutes)

About weather observations | Map of weather stations | Latest weather observations for QLD | Other Formats
Station Details ID: 035124 Name: CLERMONT AIRPORT Lat: -22.78 Lon: 147.62 Height: 270.27 m
Data from the previous 72 hours. | See also: Recent months at Clermont Airport
Date/Time
EST
Temp
°C
App
Temp
°C
Dew
Point
°C
Rel
Hum
%
Delta-T
°C
Wind Press
QNH
hPa
Press
MSL
hPa
Rain since
9am
mm
Dir  Spd
km/h
Gust
km/h
Spd
kts
Gust
kts
17/12:00pm 24.9 25.8 16.6 60 5.2 SE 7 15 4 8 1014.2 1012.8 0.0
17/11:30am 24.7 24.7 17.2 63 4.7 SE 13 22 7 12 1014.4 1013.0 0.0
17/11:00am 24.5 24.8 17.0 63 4.7 E 11 19 6 10 1015.0 1013.6 0.0
17/10:30am 23.8 23.8 17.3 67 4.1 SE 13 19 7 10 1015.5 1014.1 0.0
17/10:00am 22.8 22.9 17.5 72 3.3 ESE 13 22 7 12 1015.7 1014.3 0.0
17/09:30am 22.3 22.7 17.2 73 3.2 SE 11 19 6 10 1015.7 1014.3 0.0
17/09:00am 22.1 22.1 17.2 74 3.0 SE 13 22 7 12 1015.7 1014.3 0.0
17/08:30am 21.3 21.9 17.7 80 2.2 ESE 11 22 6 12 1015.4 1014.0 0.0
17/08:00am 21.1 21.7 17.7 81 2.1 ESE 11 19 6 10 1015.1 1013.7 0.0
17/07:30am 21.0 21.7 18.0 83 1.9 SE 11 19 6 10 1014.6 1013.2 0.0
17/07:00am 20.5 21.6 17.9 85 1.6 SE 9 15 5 8 1014.2 1012.8 0.0
17/06:30am 20.1 21.7 17.9 87 1.4 SE 6 9 3 5 1013.6 1012.3 0.0
17/06:00am 19.6 21.1 17.7 89 1.2 SE 6 13 3 7 1012.8 1011.4 0.0
17/05:30am 19.8 21.3 17.6 87 1.4 SE 6 9 3 5 1013.0 1011.6 0.0
17/05:00am 19.8 21.7 17.6 87 1.4 SSE 4 7 2 4 1012.7 1011.3 0.0
17/04:30am 19.7 21.2 17.5 87 1.4 SSE 6 7 3 4 1012.4 1011.0 0.0
17/04:00am 19.8 21.3 17.6 87 1.4 SSE 6 7 3 4 1012.0 1010.6 0.0
17/03:30am 19.7 21.0 17.5 87 1.4 SSE 7 11 4 6 1011.6 1010.2 0.0
17/03:00am 19.7 20.6 17.5 87 1.4 SSE 9 13 5 7 1011.6 1010.2 0.0
17/02:30am 19.8 21.2 17.4 86 1.5 SSE 6 9 3 5 1012.4 1011.0 0.0
17/02:00am 19.8 21.0 17.4 86 1.5 SSE 7 11 4 6 1013.3 1012.0 0.0
17/01:30am 19.8 21.0 17.4 86 1.5 SE 7 13 4 7 1013.0 1011.6 0.0
17/01:00am 19.9 21.1 17.3 85 1.6 SE 7 13 4 7 1013.7 1012.4 0.0
17/12:30am 20.0 20.8 17.2 84 1.7 SE 9 15 5 8 1014.2 1012.8 0.0
17/12:00am 20.2 21.0 17.2 83 1.9 SE 9 17 5 9 1014.4 1013.0 0.0
 
Date/Time
EST
Temp
°C
App
Temp
°C
Dew
Point
°C
Rel
Hum
%
Delta-T
°C
Wind Press
QNH
hPa
Press
MSL
hPa
Rain since
9am
mm
Dir  Spd
km/h
Gust
km/h
Spd
kts
Gust
kts
16/11:30pm 20.4 21.5 17.2 82 2.0 SSE 7 11 4 6 1014.4 1013.0 0.0
16/11:00pm 20.6 21.4 17.2 81 2.1 SE 9 17 5 9 1014.4 1013.0 0.0
16/10:30pm 20.9 21.2 17.1 79 2.3 SE 11 20 6 11 1014.6 1013.2 0.0
16/10:00pm 21.4 21.6 16.8 75 2.8 SE 11 17 6 9 1014.6 1013.2 0.0
16/09:30pm 21.7 22.1 16.4 72 3.2 SE 9 17 5 9 1014.4 1013.0 0.0
16/09:00pm 22.2 22.2 16.2 69 3.7 SE 11 19 6 10 1014.2 1012.8 0.0
16/08:30pm 22.7 21.5 16.0 66 4.1 SE 17 30 9 16 1013.9 1012.6 0.0
16/08:00pm 23.6 23.2 15.1 59 5.1 SE 11 19 6 10 1013.6 1012.3 0.0
16/07:30pm 24.1 23.2 14.8 56 5.6 SE 13 24 7 13 1013.2 1011.8 0.0
16/07:00pm 24.4 23.9 13.9 52 6.2 SSE 9 15 5 8 1013.0 1011.6 0.0
16/06:30pm 24.6 24.4 13.5 50 6.6 SSE 7 13 4 7 1012.5 1011.1 0.0
16/06:00pm 24.9 24.1 12.8 47 7.1 SSE 9 15 5 8 1011.9 1010.5 0.0
16/05:30pm 25.2 24.5 13.1 47 7.1 SSE 9 15 5 8 1011.6 1010.2 0.0
16/05:00pm 25.5 24.4 13.0 46 7.4 SSE 11 20 6 11 1011.4 1010.0 0.0
16/04:30pm 25.6 24.0 12.8 45 7.5 SSE 13 20 7 11 1011.3 1009.9 0.0
16/04:00pm 26.1 25.2 13.6 46 7.5 SSE 11 17 6 9 1011.2 1009.8 0.0
16/03:30pm 26.2 24.6 14.0 47 7.3 SSE 15 20 8 11 1011.2 1009.8 0.0
16/03:00pm 25.4 24.5 13.6 48 7.0 SE 11 15 6 8 1011.5 1010.1 0.0
16/02:30pm 25.6 25.1 13.8 48 7.0 S 9 17 5 9 1011.8 1010.4 0.0
16/02:00pm 24.8 24.0 14.0 51 6.4 SSE 11 17 6 9 1012.1 1010.7 0.0
16/01:30pm 25.1 24.5 13.6 49 6.8 SE 9 15 5 8 1012.5 1011.1 0.0
16/01:00pm 24.9 24.2 14.4 52 6.3 SSE 11 17 6 9 1013.0 1011.6 0.0
16/12:30pm 25.0 23.6 15.6 56 5.8 S 17 24 9 13 1013.5 1012.2 0.0
16/12:00pm 23.9 23.9 15.1 58 5.3 SSE 9 19 5 10 1014.3 1012.9 0.0
16/11:30am 23.3 23.1 14.8 59 5.1 SE 9 17 5 9 1014.8 1013.4 0.0
16/11:00am 22.4 22.1 14.3 60 4.8 SE 9 19 5 10 1015.3 1013.9 0.0
16/10:30am 22.1 21.5 14.7 63 4.4 ESE 11 19 6 10 1015.7 1014.3 0.0
16/10:00am 21.9 21.4 14.8 64 4.2 SE 11 20 6 11 1015.8 1014.4 0.0
16/09:30am 21.5 21.5 15.3 68 3.7 ESE 9 17 5 9 1016.0 1014.6 0.0
16/09:00am 20.9 20.2 15.4 71 3.3 ESE 13 19 7 10 1015.8 1014.4 0.0
16/08:30am 20.1 19.0 15.3 74 2.9 SE 15 22 8 12 1015.7 1014.3 0.0
16/08:00am 19.8 19.0 15.2 75 2.7 SE 13 19 7 10 1015.4 1014.0 0.0
16/07:30am 19.3 19.0 15.4 78 2.3 SE 11 19 6 10 1015.2 1013.8 0.0
16/07:00am 18.9 18.2 15.4 80 2.1 SSE 13 20 7 11 1014.9 1013.5 0.0
16/06:30am 18.6 17.9 15.3 81 2.0 SSE 13 19 7 10 1014.6 1013.2 0.0
16/06:00am 18.7 18.8 15.4 81 2.0 SE 9 17 5 9 1014.3 1012.9 0.0
16/05:30am 18.7 18.4 15.4 81 2.0 SE 11 17 6 9 1014.0 1012.7 0.0
16/05:00am 18.7 18.5 15.6 82 1.9 SE 11 17 6 9 1013.7 1012.4 0.0
16/04:30am 18.8 19.0 15.7 82 1.9 SE 9 19 5 10 1013.3 1012.0 0.0
16/04:00am 18.8 19.4 15.7 82 1.9 SE 7 13 4 7 1013.0 1011.6 0.0
16/03:30am 18.6 19.2 15.7 83 1.7 SE 7 15 4 8 1012.9 1011.5 0.0
16/03:00am 18.5 18.3 15.6 83 1.7 SE 11 19 6 10 1012.7 1011.3 0.0
16/02:30am 18.6 18.4 15.7 83 1.7 SE 11 20 6 11 1012.8 1011.4 0.0
16/02:00am 18.8 18.7 15.9 83 1.7 SSE 11 15 6 8 1013.3 1012.0 0.0
16/01:30am 18.8 19.1 15.9 83 1.7 SE 9 19 5 10 1013.2 1011.8 0.0
16/01:00am 19.2 18.7 15.9 81 2.0 SE 13 17 7 9 1013.3 1012.0 0.0
16/12:30am 19.4 18.5 15.9 80 2.1 SE 15 26 8 14 1013.5 1012.2 0.0
16/12:00am 19.5 19.0 15.8 79 2.2 SE 13 22 7 12 1013.8 1012.5 0.0
 
Date/Time
EST
Temp
°C
App
Temp
°C
Dew
Point
°C
Rel
Hum
%
Delta-T
°C
Wind Press
QNH
hPa
Press
MSL
hPa
Rain since
9am
mm
Dir  Spd
km/h
Gust
km/h
Spd
kts
Gust
kts
15/11:30pm 19.9 19.4 16.0 78 2.4 SE 13 20 7 11 1014.3 1012.9 0.0
15/11:00pm 20.3 19.1 16.1 77 2.5 SSE 17 26 9 14 1013.9 1012.6 0.0
15/10:30pm 20.6 19.8 16.0 75 2.8 SE 15 30 8 16 1013.8 1012.5 0.0
15/10:00pm 21.0 20.0 15.5 71 3.3 SSE 15 24 8 13 1013.7 1012.4 0.0
15/09:30pm 21.6 21.9 14.5 64 4.2 SSE 6 11 3 6 1013.3 1012.0 0.0
15/09:00pm 21.4 22.2 14.8 66 3.9 SSE 4 7 2 4 1013.3 1012.0 0.0
15/08:30pm 20.0 21.8 15.6 76 2.6 CALM 0 2 0 1 1013.1 1011.7 0.0
15/08:00pm 20.7 22.3 14.8 69 3.5 CALM 0 0 0 0 1012.8 1011.4 0.0
15/07:30pm 22.4 23.2 13.7 58 5.1 ESE 2 4 1 2 1012.4 1011.0 0.0
15/07:00pm 23.5 23.9 13.7 54 5.8 SE 4 6 2 3 1011.8 1010.4 0.0
15/06:30pm 24.1 24.0 13.3 51 6.3 SE 6 7 3 4 1011.6 1010.2 0.0
15/06:00pm 24.9 24.2 13.1 48 6.9 SE 9 15 5 8 1011.1 1009.7 0.0
15/05:30pm 25.5 24.9 13.4 47 7.2 SE 9 15 5 8 1010.8 1009.4 0.0
15/05:00pm 25.8 25.0 14.0 48 7.1 SE 11 17 6 9 1010.6 1009.2 0.0
15/04:30pm 26.0 24.8 14.1 47 7.1 S 13 19 7 10 1010.6 1009.2 0.0
15/04:00pm 25.8 24.8 14.6 50 6.8 SSE 13 24 7 13 1010.9 1009.5 0.0
15/03:30pm 25.8 25.4 15.2 52 6.5 SSE 11 20 6 11 1011.1 1009.7 0.0
15/03:00pm 25.8 25.4 15.2 52 6.5 SSE 11 20 6 11 1011.5 1010.1 0.0
15/02:30pm 26.1 26.4 16.1 54 6.2 SE 9 17 5 9 1011.7 1010.3 0.0
15/02:00pm 26.1 26.2 15.5 52 6.5 SE 9 20 5 11 1011.9 1010.5 0.0
15/01:30pm 25.4 24.6 16.0 56 5.8 SE 15 22 8 12 1012.4 1011.0 0.0
15/01:00pm 24.5 23.3 15.1 55 5.7 SSE 15 26 8 14 1012.7 1011.3 0.0
15/12:30pm 24.6 23.8 15.2 55 5.7 SE 13 24 7 13 1013.0 1011.6 0.0
15/12:00pm 25.8 25.6 16.6 56 5.7 SSE 13 24 7 13 1013.4 1012.1 0.0
15/11:30am 24.6 23.3 15.8 58 5.4 S 17 28 9 15 1013.8 1012.5 0.0
15/11:00am 23.6 22.9 15.4 60 5.0 SSE 13 19 7 10 1014.2 1012.8 0.0
15/10:30am 23.6 23.2 16.1 62 4.6 SE 13 24 7 13 1014.3 1012.9 0.0
15/10:00am 23.4 23.7 16.0 63 4.5 ESE 9 17 5 9 1014.5 1013.1 0.0
15/09:30am 22.2 22.0 15.8 67 3.9 SSE 11 19 6 10 1014.8 1013.4 0.0
15/09:00am 21.7 21.2 16.0 70 3.5 SSE 13 19 7 10 1014.8 1013.4 0.2
15/08:30am 21.1 21.7 16.7 76 2.7 SSE 9 17 5 9 1014.7 1013.3 0.2
15/08:00am 20.2 21.0 16.4 79 2.3 ESE 7 13 4 7 1014.6 1013.2 0.2
15/07:30am 19.8 19.9 16.6 82 2.0 SE 11 13 6 7 1014.4 1013.0 0.2
15/07:00am 19.5 19.9 16.3 82 1.9 SSE 9 11 5 6 1013.8 1012.5 0.2
15/06:30am 18.3 19.8 16.6 90 1.0 SSE 4 6 2 3 1013.6 1012.3 0.2
15/06:00am 17.7 19.0 16.2 91 0.9 SSE 4 6 2 3 1013.4 1012.1 0.2
15/05:30am 17.6 18.4 15.9 90 1.0 SSE 6 7 3 4 1013.0 1011.6 0.2
15/05:00am 17.9 18.7 15.9 88 1.2 SSE 6 9 3 5 1012.8 1011.4 0.2
15/04:30am 17.9 19.0 15.5 86 1.4 SE 4 7 2 4 1012.8 1011.4 0.2
15/04:00am 18.3 18.7 15.4 83 1.7 SE 7 11 4 6 1012.7 1011.3 0.2
15/03:30am 18.5 19.1 15.2 81 2.0 SSE 6 9 3 5 1012.4 1011.0 0.2
15/03:00am 18.8 19.8 15.3 80 2.1 SE 4 6 2 3 1012.6 1011.2 0.2
15/02:30am 18.7 19.0 15.0 79 2.2 SE 7 11 4 6 1012.5 1011.1 0.2
15/02:00am 18.7 18.9 14.8 78 2.3 SE 7 11 4 6 1012.5 1011.1 0.2
15/01:30am 19.3 19.7 15.2 77 2.4 SSE 7 13 4 7 1012.9 1011.5 0.2
15/01:00am 19.7 19.9 15.8 78 2.3 SE 9 13 5 7 1013.1 1011.7 0.2
15/12:30am 20.1 21.2 16.7 81 2.1 SE 6 9 3 5 1013.1 1011.7 0.2
15/12:00am 20.4 21.4 16.8 80 2.2 SE 7 13 4 7 1013.3 1012.0 0.2
 
Date/Time
EST
Temp
°C
App
Temp
°C
Dew
Point
°C
Rel
Hum
%
Delta-T
°C
Wind Press
QNH
hPa
Press
MSL
hPa
Rain since
9am
mm
Dir  Spd
km/h
Gust
km/h
Spd
kts
Gust
kts
14/11:30pm 20.7 21.8 16.7 78 2.5 ESE 6 9 3 5 1013.4 1012.1 0.2
14/11:00pm 21.1 21.9 16.3 74 2.9 ESE 7 17 4 9 1013.4 1012.1 0.2
14/10:30pm 21.8 22.6 16.3 71 3.4 ESE 7 13 4 7 1013.4 1012.1 0.2
14/10:00pm 22.4 22.4 16.2 68 3.8 SE 11 19 6 10 1013.8 1012.5 0.2
14/09:30pm 22.9 23.7 16.4 67 4.0 SE 7 15 4 8 1013.9 1012.6 0.2
14/09:00pm 23.2 24.0 16.3 65 4.2 ESE 7 15 4 8 1013.7 1012.4 0.2
14/08:30pm 23.7 24.2 16.5 64 4.5 SE 9 15 5 8 1013.4 1012.1 0.2
14/08:00pm 23.8 25.4 16.8 65 4.4 SE 4 6 2 3 1013.1 1011.7 0.2
14/07:30pm 24.1 25.6 16.6 63 4.7 SSE 4 6 2 3 1013.1 1011.7 0.2
14/07:00pm 24.0 25.9 16.8 64 4.5 SE 2 4 1 2 1012.7 1011.3 0.2
14/06:30pm 24.9 27.1 16.6 60 5.2 CALM 0 2 0 1 1012.4 1011.0 0.2
14/06:00pm 26.0 27.4 15.4 52 6.5 ESE 2 6 1 3 1012.0 1010.6 0.2
14/05:30pm 26.6 26.6 15.3 50 6.9 ESE 9 17 5 9 1011.6 1010.2 0.2
14/05:00pm 26.7 27.4 16.0 52 6.6 ESE 7 15 4 8 1011.3 1009.9 0.2
14/04:30pm 26.8 26.9 16.4 53 6.5 E 11 17 6 9 1011.1 1009.7 0.2
14/04:00pm 27.1 28.0 16.7 53 6.5 S 7 13 4 7 1011.0 1009.6 0.2
14/03:30pm 26.8 26.5 16.4 53 6.5 SE 13 28 7 15 1011.0 1009.6 0.2
14/03:00pm 27.4 27.5 16.4 51 6.9 ESE 11 15 6 8 1011.2 1009.8 0.2
14/02:30pm 27.5 27.5 15.2 47 7.6 ENE 9 15 5 8 1011.4 1010.0 0.2
14/02:00pm 26.9 27.2 15.9 51 6.8 ENE 9 17 5 9 1011.9 1010.5 0.2
14/01:30pm 27.1 28.0 16.7 53 6.5 E 7 15 4 8 1012.2 1010.8 0.2
14/01:00pm 26.2 27.2 16.4 54 6.1 E 6 11 3 6 1012.6 1011.2 0.2
14/12:30pm 26.2 26.8 16.7 56 5.9 ESE 9 20 5 11 1013.2 1011.8 0.2

Other Formats:

Comma delimited format used in spreadsheet applications
http://www.bom.gov.au/fwo/IDQ60801/IDQ60801.94395.axf

JavaScript Object Notation format (JSON) in row-major order
http://www.bom.gov.au/fwo/IDQ60801/IDQ60801.94395.json